createdAt,value
2023-02-06T00:01:51.600Z,-0.23
2023-02-06T00:04:20.624Z,-0.24
2023-02-06T00:06:50.006Z,-0.13
2023-02-06T00:09:18.416Z,0.02
2023-02-06T00:11:46.661Z,-0.01
2023-02-06T00:14:15.061Z,-0.04
2023-02-06T00:16:43.487Z,-0.10
2023-02-06T00:19:12.288Z,-0.14
2023-02-06T00:21:40.900Z,-0.07
2023-02-06T00:24:10.248Z,0.03
2023-02-06T00:26:38.555Z,-0.03
2023-02-06T00:29:06.920Z,-0.08
2023-02-06T00:31:35.540Z,-0.14
2023-02-06T00:34:04.302Z,-0.16
2023-02-06T00:36:33.557Z,-0.05
2023-02-06T00:39:02.130Z,-0.04
2023-02-06T00:41:31.275Z,-0.09
2023-02-06T00:44:00.091Z,-0.27
2023-02-06T00:46:28.833Z,-0.38
2023-02-06T00:48:56.950Z,-0.33
2023-02-06T00:51:25.984Z,-0.25
2023-02-06T00:53:55.251Z,-0.25
2023-02-06T00:56:23.806Z,-0.24
2023-02-06T00:58:52.538Z,-0.23
2023-02-06T01:01:21.114Z,-0.23
2023-02-06T01:03:50.086Z,-0.11
2023-02-06T01:06:18.880Z,0.03
2023-02-06T01:08:47.839Z,-0.04
2023-02-06T01:11:19.315Z,-0.07
2023-02-06T01:13:48.556Z,-0.13
2023-02-06T01:16:20.327Z,-0.17
2023-02-06T01:18:49.887Z,-0.10
2023-02-06T01:21:22.993Z,-0.05
2023-02-06T01:23:54.341Z,-0.13
2023-02-06T01:26:27.686Z,-0.15
2023-02-06T01:28:57.462Z,-0.19
2023-02-06T01:31:29.804Z,-0.17
2023-02-06T01:34:00.289Z,-0.05
2023-02-06T01:36:30.005Z,-0.04
2023-02-06T01:38:59.039Z,-0.06
2023-02-06T01:41:27.846Z,-0.12
2023-02-06T01:44:08.511Z,-0.45
2023-02-06T01:46:38.752Z,-0.33
2023-02-06T01:49:10.049Z,-0.22
2023-02-06T01:51:40.170Z,-0.21
2023-02-06T01:54:10.963Z,-0.18
2023-02-06T01:56:45.938Z,-0.17
2023-02-06T01:59:15.049Z,-0.09
2023-02-06T02:01:44.124Z,-0.09
2023-02-06T02:04:20.498Z,-0.10
2023-02-06T02:07:14.368Z,-0.11
2023-02-06T02:09:42.902Z,-0.17
2023-02-06T02:12:11.433Z,-0.04
2023-02-06T02:14:43.990Z,0.04
2023-02-06T02:17:34.055Z,-0.03
2023-02-06T02:20:17.655Z,-0.11
2023-02-06T02:22:51.484Z,-0.19
2023-02-06T02:25:43.313Z,-0.23
2023-02-06T02:28:39.547Z,-0.29
2023-02-06T02:31:39.021Z,-0.29
2023-02-06T02:34:32.324Z,-0.48
2023-02-06T02:37:06.832Z,-0.51
2023-02-06T02:39:53.717Z,-0.42
2023-02-06T02:43:03.162Z,-0.54
2023-02-06T02:45:44.071Z,-0.52
2023-02-06T02:48:23.445Z,-0.54
2023-02-06T02:50:54.875Z,-0.53
2023-02-06T02:53:23.567Z,-0.46
2023-02-06T02:55:51.929Z,-0.41
2023-02-06T02:58:25.414Z,-0.54
2023-02-06T03:01:07.357Z,-0.68
2023-02-06T03:03:39.154Z,-0.76
2023-02-06T03:06:41.129Z,-0.84
2023-02-06T03:09:34.427Z,-0.91
2023-02-06T03:12:16.894Z,-0.81
2023-02-06T03:14:54.657Z,-1.05
2023-02-06T03:17:36.066Z,-0.93
2023-02-06T03:20:08.247Z,-0.86
2023-02-06T03:22:37.621Z,-0.77
2023-02-06T03:25:16.568Z,-0.68
2023-02-06T03:27:46.130Z,-0.92
2023-02-06T03:30:16.901Z,-1.01
2023-02-06T03:32:50.237Z,-0.91
2023-02-06T03:35:25.627Z,-0.70
2023-02-06T03:37:54.442Z,-0.88
2023-02-06T03:40:23.798Z,-1.16
2023-02-06T03:42:57.213Z,-1.19
2023-02-06T03:45:33.276Z,-1.22
2023-02-06T03:48:15.309Z,-0.97
2023-02-06T03:50:47.419Z,-0.83
2023-02-06T03:53:17.811Z,-0.83
2023-02-06T03:55:48.068Z,-0.84
2023-02-06T03:58:16.669Z,-0.80
2023-02-06T04:00:46.745Z,-0.56
2023-02-06T04:03:15.914Z,-0.66
2023-02-06T04:05:44.995Z,-0.65
2023-02-06T04:08:13.558Z,-0.66
2023-02-06T04:10:41.975Z,-0.73
2023-02-06T04:13:10.568Z,-0.64
2023-02-06T04:15:39.143Z,-0.45
2023-02-06T04:18:07.589Z,-0.41
2023-02-06T04:20:41.065Z,-0.44
2023-02-06T04:23:09.430Z,-0.64
2023-02-06T04:25:38.033Z,-0.59
2023-02-06T04:28:06.734Z,-0.38
2023-02-06T04:30:35.840Z,-0.33
2023-02-06T04:33:04.397Z,-0.26
2023-02-06T04:35:33.184Z,-0.22
2023-02-06T04:38:01.600Z,-0.20
2023-02-06T04:40:29.673Z,-0.11
2023-02-06T04:42:58.238Z,-0.28
2023-02-06T04:45:26.764Z,-0.46
2023-02-06T04:47:55.143Z,-0.48
2023-02-06T04:50:23.440Z,-0.39
2023-02-06T04:52:52.371Z,-0.20
2023-02-06T04:55:22.714Z,-0.09
2023-02-06T04:57:51.562Z,-0.14
2023-02-06T05:00:19.975Z,-0.16
2023-02-06T05:02:48.232Z,-0.17
2023-02-06T05:05:17.112Z,-0.12
2023-02-06T05:07:45.671Z,0.02
2023-02-06T05:10:15.086Z,0.02
2023-02-06T05:12:43.462Z,-0.00
2023-02-06T05:15:11.756Z,-0.02
2023-02-06T05:17:40.436Z,-0.00
2023-02-06T05:20:09.411Z,0.13
2023-02-06T05:22:37.600Z,0.13
2023-02-06T05:25:07.551Z,0.07
2023-02-06T05:27:36.156Z,0.01
2023-02-06T05:30:04.957Z,-0.07
2023-02-06T05:32:33.736Z,-0.03
2023-02-06T05:35:02.270Z,0.04
2023-02-06T05:37:30.734Z,-0.01
2023-02-06T05:40:00.086Z,-0.08
2023-02-06T05:42:30.190Z,-0.12
2023-02-06T05:45:01.865Z,-0.11
2023-02-06T05:47:31.223Z,-0.03
2023-02-06T05:50:00.094Z,-0.06
2023-02-06T05:52:28.614Z,-0.13
2023-02-06T05:54:56.839Z,-0.19
2023-02-06T05:57:25.270Z,-0.25
2023-02-06T05:59:53.989Z,-0.19
2023-02-06T06:02:22.448Z,-0.22
2023-02-06T06:04:51.120Z,-0.34
2023-02-06T06:07:19.454Z,-0.42
2023-02-06T06:09:48.212Z,-0.47
2023-02-06T06:12:16.684Z,-0.41
2023-02-06T06:14:45.880Z,-0.33
2023-02-06T06:17:14.498Z,-0.38
2023-02-06T06:19:44.239Z,-0.43
2023-02-06T06:22:12.683Z,-0.51
2023-02-06T06:24:40.988Z,-0.53
2023-02-06T06:27:10.851Z,-0.40
2023-02-06T06:29:39.283Z,-0.35
2023-02-06T06:32:07.853Z,-0.48
2023-02-06T06:34:36.376Z,-0.84
2023-02-06T06:37:05.230Z,-0.96
2023-02-06T06:39:33.608Z,-0.83
2023-02-06T06:42:04.648Z,-0.69
2023-02-06T06:44:33.367Z,-0.61
2023-02-06T06:47:02.572Z,-0.66
2023-02-06T06:49:31.246Z,-0.76
2023-02-06T06:52:00.145Z,-0.77
2023-02-06T06:54:28.842Z,-0.64
2023-02-06T06:56:57.389Z,-0.50
2023-02-06T06:59:26.613Z,-0.50
2023-02-06T07:01:54.983Z,-0.72
2023-02-06T07:04:23.953Z,-0.96
2023-02-06T07:06:52.638Z,-1.23
2023-02-06T07:09:21.365Z,-1.26
2023-02-06T07:11:53.593Z,-0.97
2023-02-06T07:14:24.047Z,-0.84
2023-02-06T07:16:52.402Z,-0.77
2023-02-06T07:19:23.422Z,-0.53
2023-02-06T07:21:51.606Z,-0.43
2023-02-06T07:24:19.903Z,-0.45
2023-02-06T07:26:50.304Z,-0.44
2023-02-06T07:29:18.822Z,-0.46
2023-02-06T07:31:47.551Z,-0.55
2023-02-06T07:34:17.759Z,-0.45
2023-02-06T07:36:46.626Z,-0.38
2023-02-06T07:39:14.938Z,-0.44
2023-02-06T07:41:43.466Z,-0.67
2023-02-06T07:44:12.087Z,-0.52
2023-02-06T07:46:40.634Z,-0.46
2023-02-06T07:49:09.188Z,-0.38
2023-02-06T07:51:37.860Z,-0.34
2023-02-06T07:54:06.863Z,-0.64
2023-02-06T07:56:35.456Z,-0.34
2023-02-06T07:59:04.799Z,-0.14
2023-02-06T08:01:33.970Z,-0.34
2023-02-06T08:04:03.329Z,-0.23
2023-02-06T08:06:32.765Z,-0.22
2023-02-06T08:09:01.222Z,-0.08
2023-02-06T08:11:31.238Z,-0.07
2023-02-06T08:14:00.110Z,-0.04
2023-02-06T08:16:28.525Z,0.04
2023-02-06T08:18:57.419Z,0.16
2023-02-06T08:21:26.223Z,0.17
2023-02-06T08:24:00.852Z,0.47
2023-02-06T08:26:30.348Z,0.64
2023-02-06T08:29:02.878Z,0.62
2023-02-06T08:31:37.457Z,0.76
2023-02-06T08:34:08.367Z,0.93
2023-02-06T08:36:36.977Z,1.11
2023-02-06T08:39:05.943Z,1.25
2023-02-06T08:41:38.956Z,1.14
2023-02-06T08:44:12.068Z,1.29
2023-02-06T08:46:41.649Z,1.40
2023-02-06T08:49:19.212Z,1.56
2023-02-06T08:51:50.828Z,1.50
2023-02-06T08:54:22.875Z,1.30
2023-02-06T08:56:53.511Z,1.40
2023-02-06T08:59:21.857Z,1.44
2023-02-06T09:01:50.216Z,1.56
2023-02-06T09:04:19.808Z,1.68
2023-02-06T09:06:49.497Z,1.77
2023-02-06T09:09:21.221Z,1.70
2023-02-06T09:11:49.396Z,1.40
2023-02-06T09:14:18.382Z,1.27
2023-02-06T09:16:48.075Z,1.07
2023-02-06T09:19:16.787Z,1.37
2023-02-06T09:21:46.161Z,1.32
2023-02-06T09:24:14.424Z,1.35
2023-02-06T09:26:58.569Z,1.66
2023-02-06T09:29:32.239Z,1.83
2023-02-06T09:32:03.225Z,2.08
2023-02-06T09:34:33.012Z,2.30
2023-02-06T09:37:06.031Z,2.40
2023-02-06T09:39:34.512Z,2.40
2023-02-06T09:42:32.523Z,2.49
2023-02-06T09:45:09.185Z,2.68
2023-02-06T09:47:47.359Z,2.85
2023-02-06T09:50:28.300Z,2.01
2023-02-06T09:53:08.965Z,2.62
2023-02-06T09:55:45.652Z,2.84
2023-02-06T09:58:23.473Z,2.36
2023-02-06T10:01:13.323Z,2.84
2023-02-06T10:04:00.888Z,2.82
2023-02-06T10:07:01.946Z,3.17
2023-02-06T10:09:45.293Z,3.32
2023-02-06T10:12:20.729Z,3.38
2023-02-06T10:14:57.871Z,3.38
2023-02-06T10:17:45.558Z,3.39
2023-02-06T10:20:22.850Z,3.48
2023-02-06T10:23:14.220Z,3.68
2023-02-06T10:26:00.036Z,3.81
2023-02-06T10:28:35.601Z,3.82
2023-02-06T10:31:22.736Z,3.87
2023-02-06T10:34:32.872Z,3.91
2023-02-06T10:37:15.545Z,3.86
2023-02-06T10:40:15.974Z,3.89
2023-02-06T10:43:13.144Z,3.79
2023-02-06T10:45:56.090Z,3.82
2023-02-06T10:48:54.722Z,3.83
2023-02-06T10:51:26.876Z,3.83
2023-02-06T10:54:01.027Z,3.90
2023-02-06T10:56:34.307Z,3.94
2023-02-06T10:59:14.179Z,4.00
2023-02-06T11:01:45.410Z,4.13
2023-02-06T11:04:34.227Z,4.11
2023-02-06T11:07:09.360Z,3.96
2023-02-06T11:09:37.657Z,3.98
2023-02-06T11:12:18.496Z,4.06
2023-02-06T11:14:47.026Z,4.00
2023-02-06T11:17:18.038Z,4.10
2023-02-06T11:19:51.690Z,4.19
2023-02-06T11:22:51.093Z,4.18
2023-02-06T11:25:34.459Z,4.11
2023-02-06T11:28:05.209Z,4.18
2023-02-06T11:30:37.308Z,4.20
2023-02-06T11:33:25.540Z,4.23
2023-02-06T11:36:03.721Z,4.18
2023-02-06T11:38:33.586Z,4.25
2023-02-06T11:41:05.820Z,4.37
2023-02-06T11:43:43.430Z,4.59
2023-02-06T11:46:11.766Z,5.01
2023-02-06T11:48:43.600Z,5.63
2023-02-06T11:51:14.132Z,6.25
2023-02-06T11:54:00.185Z,7.06
2023-02-06T11:56:30.327Z,8.71
2023-02-06T11:59:21.990Z,10.30
2023-02-06T12:01:50.769Z,12.20
2023-02-06T12:04:35.601Z,13.69
2023-02-06T12:07:30.622Z,15.10
2023-02-06T12:09:58.993Z,16.88
2023-02-06T12:12:40.688Z,18.04
2023-02-06T12:15:46.102Z,19.11
2023-02-06T12:18:19.349Z,19.69
2023-02-06T12:20:56.612Z,20.42
2023-02-06T12:23:40.165Z,21.31
2023-02-06T12:26:14.467Z,22.40
2023-02-06T12:29:05.074Z,23.01
2023-02-06T12:31:53.171Z,24.10
2023-02-06T12:34:32.176Z,24.28
2023-02-06T12:37:34.265Z,25.02
2023-02-06T12:40:19.555Z,25.49
2023-02-06T12:43:04.482Z,26.05
2023-02-06T12:46:01.280Z,26.31
2023-02-06T12:48:37.596Z,26.34
2023-02-06T12:51:44.258Z,26.23
2023-02-06T12:54:32.810Z,25.85
2023-02-06T12:57:11.820Z,26.10
2023-02-06T13:00:01.450Z,26.38
2023-02-06T13:03:18.298Z,26.19
2023-02-06T13:05:50.768Z,26.24
2023-02-06T13:08:29.234Z,26.83
2023-02-06T13:11:05.189Z,26.51
2023-02-06T13:13:43.367Z,27.40
2023-02-06T13:16:12.098Z,26.50
2023-02-06T13:19:02.936Z,26.79
2023-02-06T13:21:34.170Z,25.75
2023-02-06T13:24:12.621Z,24.96
2023-02-06T13:26:51.825Z,24.18
2023-02-06T13:29:28.648Z,22.25
2023-02-06T13:32:32.204Z,21.23
2023-02-06T13:35:25.011Z,20.22
2023-02-06T13:38:25.052Z,19.78
2023-02-06T13:41:16.950Z,18.81
2023-02-06T13:44:05.566Z,18.30
2023-02-06T13:46:46.337Z,18.14
2023-02-06T13:49:35.132Z,18.11
2023-02-06T13:52:24.018Z,17.21
2023-02-06T13:55:30.120Z,16.38
2023-02-06T13:58:20.036Z,15.27
2023-02-06T14:00:51.567Z,15.32
2023-02-06T14:03:29.419Z,15.41
2023-02-06T14:06:25.670Z,14.45
2023-02-06T14:09:09.190Z,13.62
2023-02-06T14:12:04.680Z,13.51
2023-02-06T14:15:04.826Z,12.19
2023-02-06T14:17:57.093Z,11.35
2023-02-06T14:20:48.578Z,12.17
2023-02-06T14:23:55.911Z,12.64
2023-02-06T14:26:51.128Z,12.00
2023-02-06T14:29:49.212Z,12.01
2023-02-06T14:32:38.812Z,12.57
2023-02-06T14:35:15.580Z,12.87
2023-02-06T14:37:56.422Z,12.95
2023-02-06T14:40:27.606Z,11.43
2023-02-06T14:43:02.605Z,9.97
2023-02-06T14:45:42.165Z,9.14
2023-02-06T14:48:23.072Z,8.36
2023-02-06T14:50:56.544Z,7.60
2023-02-06T14:53:38.619Z,7.07
2023-02-06T14:56:06.684Z,6.53
2023-02-06T14:58:36.512Z,6.23
2023-02-06T15:01:15.887Z,5.83
2023-02-06T15:03:45.861Z,5.44
2023-02-06T15:06:33.697Z,5.19
2023-02-06T15:09:02.203Z,4.84
2023-02-06T15:11:35.735Z,4.69
2023-02-06T15:14:21.707Z,4.48
2023-02-06T15:16:51.860Z,4.26
2023-02-06T15:19:26.426Z,4.11
2023-02-06T15:22:01.759Z,3.89
2023-02-06T15:25:00.749Z,3.75
2023-02-06T15:27:37.427Z,3.58
2023-02-06T15:30:24.480Z,3.54
2023-02-06T15:32:55.026Z,3.43
2023-02-06T15:35:36.622Z,3.35
2023-02-06T15:38:11.618Z,3.22
2023-02-06T15:40:44.761Z,3.17
2023-02-06T15:43:24.924Z,3.11
2023-02-06T15:46:00.233Z,3.00
2023-02-06T15:48:34.219Z,2.90
2023-02-06T15:51:17.006Z,2.78
2023-02-06T15:53:48.437Z,2.63
2023-02-06T15:56:25.278Z,2.55
2023-02-06T15:59:14.542Z,2.49
2023-02-06T16:01:44.314Z,2.34
2023-02-06T16:04:25.904Z,2.32
2023-02-06T16:07:00.840Z,2.24
2023-02-06T16:09:29.679Z,2.17
2023-02-06T16:11:58.621Z,2.08
2023-02-06T16:14:40.396Z,2.03
2023-02-06T16:17:12.890Z,1.96
2023-02-06T16:20:05.672Z,1.96
2023-02-06T16:22:38.038Z,1.87
2023-02-06T16:25:23.421Z,1.88
2023-02-06T16:27:53.256Z,1.85
2023-02-06T16:30:42.186Z,1.83
2023-02-06T16:33:37.688Z,1.78
2023-02-06T16:36:07.355Z,1.72
2023-02-06T16:38:35.660Z,1.75
2023-02-06T16:41:04.068Z,1.90
2023-02-06T16:43:32.197Z,1.93
2023-02-06T16:46:02.606Z,1.92
2023-02-06T16:48:30.915Z,1.91
2023-02-06T16:50:59.811Z,1.92
2023-02-06T16:53:30.233Z,1.91
2023-02-06T16:55:59.325Z,1.91
2023-02-06T16:58:30.541Z,1.91
2023-02-06T17:00:59.473Z,1.88
2023-02-06T17:03:27.781Z,1.88
2023-02-06T17:05:56.241Z,1.95
2023-02-06T17:08:25.537Z,1.92
2023-02-06T17:10:55.970Z,1.86
2023-02-06T17:13:25.615Z,1.79
2023-02-06T17:15:54.647Z,1.72
2023-02-06T17:18:24.784Z,1.65
2023-02-06T17:20:56.416Z,1.62
2023-02-06T17:23:24.718Z,1.59
2023-02-06T17:25:52.885Z,1.68
2023-02-06T17:28:21.371Z,1.75
2023-02-06T17:30:51.129Z,1.69
2023-02-06T17:33:20.377Z,1.66
2023-02-06T17:35:48.927Z,1.62
2023-02-06T17:38:17.364Z,1.57
2023-02-06T17:40:46.021Z,1.53
2023-02-06T17:43:14.480Z,1.57
2023-02-06T17:45:43.135Z,1.65
2023-02-06T17:48:11.843Z,1.59
2023-02-06T17:50:41.927Z,1.51
2023-02-06T17:53:14.562Z,1.41
2023-02-06T17:55:45.304Z,1.29
2023-02-06T17:58:14.668Z,1.16
2023-02-06T18:00:43.044Z,1.09
2023-02-06T18:03:11.701Z,1.11
2023-02-06T18:05:40.032Z,1.03
2023-02-06T18:08:08.136Z,0.92
2023-02-06T18:10:36.671Z,0.83
2023-02-06T18:13:05.613Z,0.75
2023-02-06T18:15:34.367Z,0.66
2023-02-06T18:18:04.994Z,0.67
2023-02-06T18:20:35.137Z,0.71
2023-02-06T18:23:03.993Z,0.58
2023-02-06T18:25:32.502Z,0.48
2023-02-06T18:28:01.193Z,0.39
2023-02-06T18:30:29.573Z,0.26
2023-02-06T18:32:59.342Z,0.22
2023-02-06T18:35:28.154Z,0.31
2023-02-06T18:37:56.699Z,0.35
2023-02-06T18:40:25.541Z,0.30
2023-02-06T18:42:56.973Z,0.21
2023-02-06T18:45:38.690Z,0.11
2023-02-06T18:48:13.679Z,0.02
2023-02-06T18:50:43.531Z,0.16
2023-02-06T18:53:12.143Z,0.19
2023-02-06T18:55:40.701Z,0.20
2023-02-06T18:58:09.941Z,0.18
2023-02-06T19:00:42.570Z,0.06
2023-02-06T19:03:13.959Z,-0.01
2023-02-06T19:05:42.860Z,0.06
2023-02-06T19:08:13.917Z,0.04
2023-02-06T19:10:42.691Z,-0.02
2023-02-06T19:13:14.025Z,-0.03
2023-02-06T19:15:45.851Z,-0.10
2023-02-06T19:18:13.931Z,-0.04
2023-02-06T19:20:45.221Z,0.01
2023-02-06T19:23:14.750Z,-0.14
2023-02-06T19:25:43.735Z,-0.21
2023-02-06T19:28:12.611Z,-0.17
2023-02-06T19:30:40.909Z,-0.14
2023-02-06T19:33:09.939Z,-0.09
2023-02-06T19:35:44.571Z,0.02
2023-02-06T19:38:13.090Z,-0.01
2023-02-06T19:40:41.790Z,-0.04
2023-02-06T19:43:10.261Z,-0.07
2023-02-06T19:45:39.393Z,-0.11
2023-02-06T19:48:12.489Z,-0.11
2023-02-06T19:50:42.500Z,-0.09
2023-02-06T19:53:13.797Z,-0.13
2023-02-06T19:55:48.310Z,-0.15
2023-02-06T19:58:17.023Z,-0.22
2023-02-06T20:00:50.572Z,-0.27
2023-02-06T20:03:18.811Z,-0.30
2023-02-06T20:05:52.723Z,-0.16
2023-02-06T20:08:21.146Z,-0.11
2023-02-06T20:10:49.828Z,-0.18
2023-02-06T20:13:18.855Z,-0.25
2023-02-06T20:15:51.281Z,-0.30
2023-02-06T20:18:20.054Z,-0.36
2023-02-06T20:20:48.659Z,-0.31
2023-02-06T20:23:19.520Z,-0.24
2023-02-06T20:25:51.228Z,-0.31
2023-02-06T20:28:19.816Z,-0.38
2023-02-06T20:30:48.628Z,-0.41
2023-02-06T20:33:16.804Z,-0.54
2023-02-06T20:35:46.486Z,-0.73
2023-02-06T20:38:14.921Z,-0.64
2023-02-06T20:40:50.828Z,-0.55
2023-02-06T20:43:19.435Z,-0.66
2023-02-06T20:45:47.816Z,-0.70
2023-02-06T20:48:16.410Z,-0.77
2023-02-06T20:50:45.003Z,-0.83
2023-02-06T20:53:14.297Z,-0.75
2023-02-06T20:55:47.229Z,-0.63
2023-02-06T20:58:18.515Z,-0.70
2023-02-06T21:00:47.693Z,-0.75
2023-02-06T21:03:16.390Z,-0.83
2023-02-06T21:05:46.087Z,-1.35
2023-02-06T21:08:14.747Z,-1.36
2023-02-06T21:10:44.017Z,-1.12
2023-02-06T21:13:12.518Z,-1.09
2023-02-06T21:15:41.778Z,-1.11
2023-02-06T21:18:10.468Z,-1.28
2023-02-06T21:20:39.036Z,-1.33
2023-02-06T21:23:09.670Z,-1.56
2023-02-06T21:25:38.169Z,-1.62
2023-02-06T21:28:10.901Z,-1.74
2023-02-06T21:30:40.166Z,-1.85
2023-02-06T21:33:09.678Z,-1.69
2023-02-06T21:35:40.678Z,-1.60
2023-02-06T21:38:12.253Z,-1.42
2023-02-06T21:40:47.468Z,-1.25
2023-02-06T21:43:16.428Z,-1.24
2023-02-06T21:45:47.500Z,-1.22
2023-02-06T21:48:16.116Z,-1.13
2023-02-06T21:50:45.153Z,-1.09
2023-02-06T21:53:13.915Z,-0.95
2023-02-06T21:55:44.323Z,-0.90
2023-02-06T21:58:16.888Z,-0.95
2023-02-06T22:00:48.014Z,-0.91
2023-02-06T22:03:19.943Z,-0.82
2023-02-06T22:05:48.229Z,-0.66
2023-02-06T22:08:16.935Z,-0.47
2023-02-06T22:10:45.273Z,-0.40
2023-02-06T22:13:14.618Z,-0.36
2023-02-06T22:15:51.798Z,-0.30
2023-02-06T22:18:20.667Z,-0.27
2023-02-06T22:20:48.882Z,-0.09
2023-02-06T22:23:17.116Z,0.04
2023-02-06T22:25:48.765Z,0.07
2023-02-06T22:28:17.810Z,0.11
2023-02-06T22:30:48.078Z,0.13
2023-02-06T22:33:16.590Z,0.17
2023-02-06T22:35:45.097Z,0.30
2023-02-06T22:38:16.952Z,0.36
2023-02-06T22:40:45.635Z,0.36
2023-02-06T22:43:16.732Z,0.41
2023-02-06T22:45:45.018Z,0.43
2023-02-06T22:48:13.923Z,0.58
2023-02-06T22:50:42.389Z,0.67
2023-02-06T22:53:32.285Z,0.65
2023-02-06T22:56:22.060Z,0.57
2023-02-06T22:58:51.535Z,0.54
2023-02-06T23:01:22.903Z,0.60
2023-02-06T23:03:52.863Z,0.64
2023-02-06T23:06:22.193Z,0.69
2023-02-06T23:08:51.392Z,0.72
2023-02-06T23:11:20.694Z,0.69
2023-02-06T23:13:56.565Z,0.74
2023-02-06T23:16:25.777Z,0.87
2023-02-06T23:18:54.559Z,0.83
2023-02-06T23:21:25.718Z,0.79
2023-02-06T23:23:56.956Z,0.76
2023-02-06T23:26:25.845Z,0.76
2023-02-06T23:28:58.742Z,0.88
2023-02-06T23:31:28.592Z,0.74
2023-02-06T23:33:57.088Z,0.70
2023-02-06T23:36:27.921Z,0.62
2023-02-06T23:38:56.841Z,0.45
2023-02-06T23:41:28.102Z,0.52
2023-02-06T23:43:59.848Z,0.65
2023-02-06T23:46:33.858Z,0.76
2023-02-06T23:49:02.869Z,0.51
2023-02-06T23:51:32.797Z,0.56
2023-02-06T23:54:01.077Z,0.59
2023-02-06T23:56:32.602Z,0.59
2023-02-06T23:59:03.010Z,0.75
